createdAt,value
2019-05-11T00:01:10.244Z,92.20
2019-05-11T00:03:38.979Z,92.30
2019-05-11T00:06:07.724Z,92.50
2019-05-11T00:08:36.428Z,92.70
2019-05-11T00:11:05.157Z,92.60
2019-05-11T00:13:33.889Z,92.30
2019-05-11T00:16:02.661Z,92.10
2019-05-11T00:18:31.368Z,92.20
2019-05-11T00:21:00.093Z,92.30
2019-05-11T00:23:28.818Z,92.30
2019-05-11T00:25:57.536Z,92.50
2019-05-11T00:28:26.314Z,92.60
2019-05-11T00:30:55.041Z,92.60
2019-05-11T00:33:23.776Z,92.80
2019-05-11T00:35:52.512Z,93.00
2019-05-11T00:38:21.245Z,93.20
2019-05-11T00:40:50.054Z,93.40
2019-05-11T00:43:18.778Z,93.60
2019-05-11T00:45:48.141Z,93.90
2019-05-11T00:48:16.873Z,93.90
2019-05-11T00:50:45.610Z,94.00
2019-05-11T00:53:14.341Z,94.30
2019-05-11T00:55:43.072Z,94.40
2019-05-11T00:58:11.802Z,94.60
2019-05-11T01:00:40.526Z,94.70
2019-05-11T01:03:09.253Z,95.20
2019-05-11T01:05:37.980Z,95.40
2019-05-11T01:08:06.701Z,95.30
2019-05-11T01:10:42.135Z,95.30
2019-05-11T01:13:05.880Z,95.40
2019-05-11T01:15:34.604Z,95.30
2019-05-11T01:18:03.343Z,95.40
2019-05-11T01:20:32.064Z,95.50
2019-05-11T01:23:00.862Z,95.40
2019-05-11T01:25:29.578Z,95.30
2019-05-11T01:27:58.406Z,95.20
2019-05-11T01:30:27.159Z,95.20
2019-05-11T01:32:55.888Z,95.20
2019-05-11T01:35:24.691Z,95.20
2019-05-11T01:37:53.481Z,95.00
2019-05-11T01:40:22.207Z,95.00
2019-05-11T01:42:50.999Z,94.90
2019-05-11T01:45:19.738Z,94.80
2019-05-11T01:47:48.455Z,94.70
2019-05-11T01:50:17.189Z,94.70
2019-05-11T01:52:45.894Z,94.70
2019-05-11T01:55:14.719Z,94.70
2019-05-11T01:57:43.442Z,94.70
2019-05-11T02:00:12.425Z,94.70
2019-05-11T02:02:41.215Z,94.70
2019-05-11T02:05:29.873Z,94.70
2019-05-11T02:08:00.316Z,94.70
2019-05-11T02:10:29.356Z,94.80
2019-05-11T02:12:58.053Z,94.90
2019-05-11T02:15:26.778Z,95.10
2019-05-11T02:17:55.516Z,95.30
2019-05-11T02:20:24.240Z,95.50
2019-05-11T02:22:52.957Z,95.60
2019-05-11T02:25:21.744Z,95.70
2019-05-11T02:27:50.512Z,95.80
2019-05-11T02:30:19.737Z,96.10
2019-05-11T02:32:48.500Z,95.60
2019-05-11T02:35:17.281Z,96.20
2019-05-11T02:37:46.098Z,96.00
2019-05-11T02:40:15.636Z,96.40
2019-05-11T02:42:44.369Z,96.70
2019-05-11T02:45:13.849Z,96.90
2019-05-11T02:47:42.592Z,97.10
2019-05-11T02:50:11.400Z,97.10
2019-05-11T02:52:40.516Z,97.00
2019-05-11T02:55:09.529Z,97.00
2019-05-11T02:57:38.282Z,97.00
2019-05-11T03:00:11.209Z,96.80
2019-05-11T03:02:39.959Z,96.90
2019-05-11T03:05:09.201Z,97.00
2019-05-11T03:07:37.926Z,96.70
2019-05-11T03:10:06.760Z,96.90
2019-05-11T03:12:35.491Z,96.90
2019-05-11T03:15:06.824Z,96.90
2019-05-11T03:17:35.551Z,96.70
2019-05-11T03:20:05.189Z,96.60
2019-05-11T03:22:33.915Z,96.50
2019-05-11T03:25:02.635Z,96.40
2019-05-11T03:27:31.355Z,96.10
2019-05-11T03:30:01.409Z,95.90
2019-05-11T03:32:30.570Z,95.50
2019-05-11T03:34:59.286Z,95.30
2019-05-11T03:37:28.068Z,95.20
2019-05-11T03:39:56.784Z,94.90
2019-05-11T03:42:25.607Z,94.80
2019-05-11T03:44:54.465Z,94.60
2019-05-11T03:47:23.210Z,94.40
2019-05-11T03:49:51.939Z,94.40
2019-05-11T03:52:20.658Z,94.10
2019-05-11T03:54:49.417Z,93.60
2019-05-11T03:57:18.150Z,93.20
2019-05-11T03:59:46.888Z,92.80
2019-05-11T04:02:15.604Z,92.70
2019-05-11T04:04:44.310Z,92.70
2019-05-11T04:07:13.116Z,92.50
2019-05-11T04:09:41.842Z,92.40
2019-05-11T04:12:10.597Z,92.30
2019-05-11T04:14:39.321Z,92.50
2019-05-11T04:17:08.040Z,92.70
2019-05-11T04:19:36.785Z,92.60
2019-05-11T04:22:05.528Z,92.40
2019-05-11T04:24:34.262Z,92.30
2019-05-11T04:27:03.065Z,92.80
2019-05-11T04:29:31.749Z,92.40
2019-05-11T04:32:00.532Z,92.10
2019-05-11T04:34:29.257Z,92.10
2019-05-11T04:36:58.013Z,91.90
2019-05-11T04:39:26.833Z,91.80
2019-05-11T04:41:55.932Z,91.50
2019-05-11T04:44:25.818Z,91.50
2019-05-11T04:46:56.177Z,91.20
2019-05-11T04:49:24.955Z,91.30
2019-05-11T04:51:53.687Z,91.30
2019-05-11T04:54:22.429Z,91.20
2019-05-11T04:56:51.142Z,91.30
2019-05-11T04:59:19.929Z,91.20
2019-05-11T05:01:48.846Z,91.00
2019-05-11T05:04:17.695Z,90.70
2019-05-11T05:06:58.892Z,91.10
2019-05-11T05:09:16.888Z,90.80
2019-05-11T05:11:45.768Z,90.50
2019-05-11T05:14:14.466Z,90.10
2019-05-11T05:16:43.192Z,90.00
2019-05-11T05:19:11.976Z,89.20
2019-05-11T05:21:40.809Z,88.50
2019-05-11T05:24:09.943Z,88.40
2019-05-11T05:26:38.664Z,88.70
2019-05-11T05:29:07.465Z,89.70
2019-05-11T05:31:36.476Z,90.00
2019-05-11T05:34:05.200Z,88.70
2019-05-11T05:36:34.003Z,89.20
2019-05-11T05:39:02.797Z,89.10
2019-05-11T05:41:31.549Z,89.40
2019-05-11T05:44:00.256Z,90.00
2019-05-11T05:46:28.987Z,88.80
2019-05-11T05:48:57.697Z,87.80
2019-05-11T05:51:26.436Z,86.10
2019-05-11T05:53:55.269Z,85.50
2019-05-11T05:56:23.976Z,84.40
2019-05-11T05:58:52.740Z,83.00
2019-05-11T06:01:21.466Z,82.00
2019-05-11T06:03:50.204Z,80.60
2019-05-11T06:06:18.901Z,81.00
2019-05-11T06:08:47.639Z,79.20
2019-05-11T06:11:16.460Z,79.90
2019-05-11T06:13:45.971Z,80.40
2019-05-11T06:16:15.071Z,78.80
2019-05-11T06:18:43.802Z,77.30
2019-05-11T06:21:12.537Z,76.90
2019-05-11T06:23:41.238Z,76.40
2019-05-11T06:26:09.952Z,75.90
2019-05-11T06:28:38.680Z,76.30
2019-05-11T06:31:07.405Z,76.30
2019-05-11T06:33:36.124Z,76.40
2019-05-11T06:36:05.054Z,75.50
2019-05-11T06:38:33.849Z,75.30
2019-05-11T06:41:04.036Z,75.80
2019-05-11T06:43:32.853Z,74.50
2019-05-11T06:46:01.692Z,74.90
2019-05-11T06:48:30.489Z,74.80
2019-05-11T06:50:59.207Z,72.90
2019-05-11T06:53:27.935Z,71.30
2019-05-11T06:55:56.664Z,71.40
2019-05-11T06:58:25.552Z,71.50
2019-05-11T07:00:54.280Z,70.80
2019-05-11T07:03:23.086Z,70.40
2019-05-11T07:05:51.834Z,69.80
2019-05-11T07:08:20.659Z,66.00
2019-05-11T07:10:49.434Z,64.90
2019-05-11T07:13:18.150Z,65.40
2019-05-11T07:15:46.934Z,65.20
2019-05-11T07:18:15.625Z,66.30
2019-05-11T07:20:50.543Z,64.40
2019-05-11T07:23:15.411Z,64.50
2019-05-11T07:25:44.723Z,64.00
2019-05-11T07:28:13.473Z,62.60
2019-05-11T07:30:42.185Z,63.10
2019-05-11T07:33:10.929Z,63.70
2019-05-11T07:35:39.621Z,62.80
2019-05-11T07:38:08.452Z,61.30
2019-05-11T07:40:38.444Z,60.50
2019-05-11T07:43:09.879Z,60.10
2019-05-11T07:45:38.691Z,60.20
2019-05-11T07:48:08.077Z,59.90
2019-05-11T07:50:38.679Z,58.20
2019-05-11T07:53:08.139Z,58.90
2019-05-11T07:55:38.538Z,59.50
2019-05-11T07:58:08.077Z,58.70
2019-05-11T08:00:39.774Z,58.50
2019-05-11T08:03:09.030Z,59.30
2019-05-11T08:05:38.558Z,57.90
2019-05-11T08:08:08.699Z,58.80
2019-05-11T08:10:39.096Z,56.80
2019-05-11T08:13:09.114Z,56.10
2019-05-11T08:15:39.257Z,56.80
2019-05-11T08:18:08.662Z,56.40
2019-05-11T08:20:38.569Z,56.50
2019-05-11T08:23:09.065Z,54.70
2019-05-11T08:25:38.042Z,52.60
2019-05-11T08:28:11.561Z,53.50
2019-05-11T08:30:38.140Z,52.80
2019-05-11T08:33:08.700Z,53.30
2019-05-11T08:35:38.991Z,52.30
2019-05-11T08:38:08.783Z,53.40
2019-05-11T08:40:37.988Z,52.30
2019-05-11T08:43:08.832Z,51.00
2019-05-11T08:45:57.888Z,51.60
2019-05-11T08:48:28.281Z,51.90
2019-05-11T08:50:58.179Z,51.60
2019-05-11T08:53:28.430Z,49.10
2019-05-11T08:55:58.802Z,48.20
2019-05-11T08:58:27.931Z,49.00
2019-05-11T09:00:58.291Z,48.60
2019-05-11T09:03:28.415Z,48.20
2019-05-11T09:05:58.014Z,46.50
2019-05-11T09:08:28.226Z,47.60
2019-05-11T09:10:58.185Z,47.10
2019-05-11T09:13:27.979Z,47.50
2019-05-11T09:15:58.881Z,48.30
2019-05-11T09:18:27.980Z,48.70
2019-05-11T09:20:57.711Z,48.30
2019-05-11T09:23:34.499Z,48.20
2019-05-11T09:25:58.358Z,48.40
2019-05-11T09:28:29.394Z,49.40
2019-05-11T09:30:57.911Z,49.10
2019-05-11T09:33:28.314Z,50.00
2019-05-11T09:35:58.429Z,48.60
2019-05-11T09:38:27.824Z,49.40
2019-05-11T09:40:58.592Z,49.00
2019-05-11T09:43:28.382Z,49.30
2019-05-11T09:45:58.277Z,49.20
2019-05-11T09:48:28.406Z,50.30
2019-05-11T09:50:58.802Z,48.30
2019-05-11T09:53:28.291Z,47.80
2019-05-11T09:55:58.713Z,48.40
2019-05-11T09:58:28.132Z,50.70
2019-05-11T10:00:58.604Z,54.60
2019-05-11T10:03:28.134Z,56.10
2019-05-11T10:05:57.981Z,58.80
2019-05-11T10:08:28.659Z,60.30
2019-05-11T10:10:58.043Z,60.00
2019-05-11T10:13:27.834Z,59.90
2019-05-11T10:16:04.440Z,59.60
2019-05-11T10:18:28.156Z,59.90
2019-05-11T10:20:58.663Z,63.90
2019-05-11T10:23:28.001Z,63.40
2019-05-11T10:25:58.585Z,64.20
2019-05-11T10:28:28.431Z,64.30
2019-05-11T10:30:57.916Z,64.60
2019-05-11T10:33:28.118Z,65.50
2019-05-11T10:36:00.930Z,64.50
2019-05-11T10:38:28.875Z,64.10
2019-05-11T10:40:58.235Z,64.00
2019-05-11T10:43:28.850Z,63.90
2019-05-11T10:45:58.793Z,64.00
2019-05-11T10:48:28.194Z,64.10
2019-05-11T10:50:57.626Z,62.20
2019-05-11T10:53:27.848Z,64.40
2019-05-11T10:55:58.160Z,62.80
2019-05-11T10:58:28.529Z,62.80
2019-05-11T11:00:58.276Z,64.60
2019-05-11T11:03:28.423Z,63.90
2019-05-11T11:05:58.060Z,64.60
2019-05-11T11:08:27.816Z,64.60
2019-05-11T11:10:58.580Z,64.20
2019-05-11T11:13:28.103Z,65.00
2019-05-11T11:15:58.219Z,65.60
2019-05-11T11:18:28.801Z,66.40
2019-05-11T11:20:58.121Z,68.20
2019-05-11T11:23:28.505Z,69.20
2019-05-11T11:25:58.581Z,69.70
2019-05-11T11:28:28.052Z,70.10
2019-05-11T11:30:58.496Z,71.20
2019-05-11T11:33:27.722Z,71.00
2019-05-11T11:35:58.001Z,70.60
2019-05-11T11:38:28.689Z,70.90
2019-05-11T11:40:58.755Z,73.30
2019-05-11T11:43:28.755Z,73.40
2019-05-11T11:45:58.073Z,72.90
2019-05-11T11:48:28.021Z,71.90
2019-05-11T11:50:58.967Z,72.60
2019-05-11T11:53:27.906Z,74.00
2019-05-11T11:55:58.745Z,73.90
2019-05-11T11:58:27.724Z,75.40
2019-05-11T12:00:58.686Z,76.90
2019-05-11T12:03:27.747Z,77.50
2019-05-11T12:05:58.181Z,79.20
2019-05-11T12:08:28.283Z,79.80
2019-05-11T12:10:58.885Z,80.30
2019-05-11T12:13:29.711Z,81.50
2019-05-11T12:15:58.534Z,82.90
2019-05-11T12:18:29.051Z,83.10
2019-05-11T12:20:58.613Z,83.30
2019-05-11T12:23:28.502Z,83.70
2019-05-11T12:25:58.030Z,83.40
2019-05-11T12:28:27.625Z,83.40
2019-05-11T12:30:58.491Z,83.40
2019-05-11T12:33:27.960Z,83.30
2019-05-11T12:35:58.708Z,82.90
2019-05-11T12:38:27.748Z,82.80
2019-05-11T12:40:57.934Z,82.60
2019-05-11T12:43:27.771Z,83.10
2019-05-11T12:45:58.593Z,82.40
2019-05-11T12:48:28.462Z,80.40
2019-05-11T12:50:58.795Z,80.50
2019-05-11T12:53:28.055Z,79.20
2019-05-11T12:55:58.819Z,77.20
2019-05-11T12:58:28.111Z,77.20
2019-05-11T13:00:58.570Z,77.70
2019-05-11T13:03:27.891Z,76.40
2019-05-11T13:05:58.555Z,75.20
2019-05-11T13:08:27.824Z,75.20
2019-05-11T13:10:58.417Z,75.00
2019-05-11T13:13:28.544Z,75.30
2019-05-11T13:15:58.492Z,75.00
2019-05-11T13:18:28.002Z,74.20
2019-05-11T13:20:58.801Z,73.10
2019-05-11T13:23:28.856Z,74.20
2019-05-11T13:25:58.701Z,74.60
2019-05-11T13:28:28.391Z,74.40
2019-05-11T13:30:57.990Z,73.70
2019-05-11T13:33:28.024Z,73.30
2019-05-11T13:35:57.850Z,72.30
2019-05-11T13:38:29.186Z,72.60
2019-05-11T13:40:58.996Z,72.70
2019-05-11T13:43:28.170Z,74.10
2019-05-11T13:45:58.385Z,75.20
2019-05-11T13:48:28.117Z,75.80
2019-05-11T13:51:00.542Z,76.40
2019-05-11T13:53:29.341Z,76.70
2019-05-11T13:56:00.412Z,77.70
2019-05-11T13:58:31.858Z,77.50
2019-05-11T14:01:00.936Z,78.70
2019-05-11T14:03:29.644Z,79.10
2019-05-11T14:05:58.452Z,79.80
2019-05-11T14:08:27.782Z,79.80
2019-05-11T14:10:58.069Z,79.70
2019-05-11T14:13:28.615Z,80.70
2019-05-11T14:15:58.677Z,81.10
2019-05-11T14:18:28.209Z,81.80
2019-05-11T14:20:58.621Z,82.30
2019-05-11T14:23:30.791Z,83.20
2019-05-11T14:25:57.917Z,83.50
2019-05-11T14:28:28.547Z,82.90
2019-05-11T14:30:57.848Z,84.20
2019-05-11T14:33:28.223Z,84.20
2019-05-11T14:35:57.906Z,84.60
2019-05-11T14:38:28.230Z,85.30
2019-05-11T14:40:58.622Z,86.10
2019-05-11T14:43:27.780Z,86.70
2019-05-11T14:45:57.799Z,87.40
2019-05-11T14:48:29.857Z,87.10
2019-05-11T14:50:59.102Z,87.60
2019-05-11T14:53:29.683Z,87.40
2019-05-11T14:55:58.614Z,87.90
2019-05-11T14:58:28.006Z,87.60
2019-05-11T15:00:58.268Z,87.30
2019-05-11T15:03:28.744Z,87.40
2019-05-11T15:05:58.234Z,87.80
2019-05-11T15:08:28.766Z,87.80
2019-05-11T15:10:57.738Z,88.40
2019-05-11T15:13:28.919Z,88.70
2019-05-11T15:15:58.638Z,88.90
2019-05-11T15:18:36.054Z,89.90
2019-05-11T15:20:58.119Z,90.20
2019-05-11T15:23:28.516Z,90.10
2019-05-11T15:25:58.686Z,90.20
2019-05-11T15:28:28.539Z,89.90
2019-05-11T15:30:58.742Z,90.00
2019-05-11T15:33:27.938Z,89.80
2019-05-11T15:35:58.313Z,89.90
2019-05-11T15:38:28.424Z,89.90
2019-05-11T15:40:57.966Z,90.00
2019-05-11T15:43:28.250Z,90.90
2019-05-11T15:45:57.838Z,90.70
2019-05-11T15:48:26.833Z,90.70
2019-05-11T15:50:57.894Z,90.80
2019-05-11T15:53:26.747Z,90.80
2019-05-11T15:55:59.608Z,91.00
2019-05-11T15:58:25.865Z,91.10
2019-05-11T16:00:54.670Z,91.10
2019-05-11T16:03:23.391Z,91.00
2019-05-11T16:05:52.117Z,91.00
2019-05-11T16:08:20.852Z,91.10
2019-05-11T16:10:49.652Z,91.30
2019-05-11T16:13:18.382Z,91.70
2019-05-11T16:15:47.720Z,91.50
2019-05-11T16:18:18.660Z,91.40
2019-05-11T16:20:48.032Z,91.10
2019-05-11T16:23:19.851Z,91.20
2019-05-11T16:25:48.854Z,91.30
2019-05-11T16:28:19.195Z,91.20
2019-05-11T16:30:48.333Z,91.50
2019-05-11T16:33:18.034Z,91.60
2019-05-11T16:35:48.978Z,92.00
2019-05-11T16:38:18.829Z,92.10
2019-05-11T16:40:48.098Z,92.10
2019-05-11T16:43:18.989Z,92.20
2019-05-11T16:45:50.730Z,92.50
2019-05-11T16:48:18.385Z,92.60
2019-05-11T16:50:47.407Z,92.70
2019-05-11T16:53:18.141Z,93.00
2019-05-11T16:55:48.635Z,93.20
2019-05-11T16:58:19.760Z,93.50
2019-05-11T17:00:48.969Z,93.10
2019-05-11T17:03:18.083Z,93.30
2019-05-11T17:05:48.446Z,93.40
2019-05-11T17:08:18.704Z,93.60
2019-05-11T17:10:59.199Z,94.10
2019-05-11T17:13:28.016Z,94.10
2019-05-11T17:15:58.896Z,94.30
2019-05-11T17:18:28.769Z,94.10
2019-05-11T17:20:58.475Z,94.30
2019-05-11T17:23:30.971Z,94.50
2019-05-11T17:25:58.117Z,94.70
2019-05-11T17:28:28.906Z,94.80
2019-05-11T17:30:59.780Z,95.20
2019-05-11T17:33:28.116Z,95.30
2019-05-11T17:35:58.741Z,95.10
2019-05-11T17:38:28.042Z,95.30
2019-05-11T17:40:58.275Z,95.50
2019-05-11T17:43:28.131Z,95.90
2019-05-11T17:45:58.497Z,95.50
2019-05-11T17:48:28.159Z,95.40
2019-05-11T17:50:58.113Z,95.50
2019-05-11T17:53:28.547Z,95.50
2019-05-11T17:55:57.963Z,95.20
2019-05-11T17:58:26.884Z,95.30
2019-05-11T18:00:58.589Z,95.10
2019-05-11T18:03:27.844Z,94.80
2019-05-11T18:05:58.712Z,94.80
2019-05-11T18:08:30.283Z,94.80
2019-05-11T18:10:58.670Z,94.70
2019-05-11T18:13:28.398Z,94.70
2019-05-11T18:15:57.891Z,94.40
2019-05-11T18:18:29.354Z,94.60
2019-05-11T18:20:58.126Z,94.60
2019-05-11T18:23:28.424Z,94.40
2019-05-11T18:25:57.220Z,94.20
2019-05-11T18:28:28.798Z,94.20
2019-05-11T18:30:58.278Z,94.30
2019-05-11T18:33:27.752Z,94.30
2019-05-11T18:35:58.536Z,94.40
2019-05-11T18:38:27.680Z,94.30
2019-05-11T18:40:58.053Z,94.30
2019-05-11T18:43:29.414Z,94.40
2019-05-11T18:45:58.465Z,94.20
2019-05-11T18:48:29.476Z,94.10
2019-05-11T18:51:00.073Z,94.00
2019-05-11T18:53:29.177Z,94.00
2019-05-11T18:55:59.067Z,93.80
2019-05-11T18:58:28.232Z,93.80
2019-05-11T19:00:57.677Z,93.80
2019-05-11T19:03:28.035Z,93.90
2019-05-11T19:05:57.736Z,93.90
2019-05-11T19:08:27.957Z,93.80
2019-05-11T19:10:58.297Z,93.80
2019-05-11T19:13:28.676Z,93.50
2019-05-11T19:15:58.538Z,93.60
2019-05-11T19:18:28.520Z,93.60
2019-05-11T19:20:58.609Z,93.60
2019-05-11T19:23:28.652Z,93.20
2019-05-11T19:25:58.963Z,93.80
2019-05-11T19:28:28.244Z,93.90
2019-05-11T19:30:59.146Z,94.00
2019-05-11T19:33:27.883Z,94.40
2019-05-11T19:35:58.652Z,94.50
2019-05-11T19:38:28.046Z,94.70
2019-05-11T19:40:58.894Z,94.90
2019-05-11T19:43:27.719Z,95.10
2019-05-11T19:45:59.096Z,95.30
2019-05-11T19:48:30.092Z,95.50
2019-05-11T19:51:07.507Z,95.70
2019-05-11T19:53:30.375Z,96.00
2019-05-11T19:55:59.181Z,96.10
2019-05-11T19:58:28.904Z,96.20
2019-05-11T20:00:58.111Z,96.40
2019-05-11T20:03:28.568Z,96.40
2019-05-11T20:05:58.195Z,96.70
2019-05-11T20:08:29.064Z,97.20
2019-05-11T20:10:58.613Z,96.70
2019-05-11T20:13:28.384Z,96.90
2019-05-11T20:15:57.839Z,96.90
2019-05-11T20:18:28.828Z,97.30
2019-05-11T20:20:57.265Z,97.60
2019-05-11T20:23:27.423Z,97.80
2019-05-11T20:25:58.225Z,98.20
2019-05-11T20:28:28.451Z,98.40
2019-05-11T20:30:58.723Z,98.50
2019-05-11T20:33:28.047Z,98.50
2019-05-11T20:35:58.135Z,99.10
2019-05-11T20:38:27.974Z,98.80
2019-05-11T20:40:57.769Z,98.80
2019-05-11T20:43:27.950Z,98.60
2019-05-11T20:45:56.852Z,98.50
2019-05-11T20:48:27.559Z,98.70
2019-05-11T20:50:57.703Z,98.80
2019-05-11T20:53:28.683Z,99.00
2019-05-11T20:55:58.250Z,99.10
2019-05-11T20:58:29.058Z,99.30
2019-05-11T21:01:00.002Z,99.70
2019-05-11T21:03:28.762Z,99.90
2019-05-11T21:05:58.583Z,99.90
2019-05-11T21:08:28.414Z,99.90
2019-05-11T21:10:58.145Z,99.90
2019-05-11T21:13:28.206Z,99.90
2019-05-11T21:15:59.337Z,99.90
2019-05-11T21:18:28.778Z,99.90
2019-05-11T21:20:57.831Z,99.90
2019-05-11T21:23:28.827Z,99.90
2019-05-11T21:25:57.205Z,99.90
2019-05-11T21:28:26.053Z,99.90
2019-05-11T21:30:54.957Z,99.90
2019-05-11T21:33:23.746Z,99.90
2019-05-11T21:35:52.474Z,99.90
2019-05-11T21:38:21.269Z,99.90
2019-05-11T21:40:50.025Z,99.90
2019-05-11T21:43:18.710Z,99.90
2019-05-11T21:45:47.607Z,99.90
2019-05-11T21:48:16.322Z,99.90
2019-05-11T21:50:46.212Z,99.90
2019-05-11T21:53:14.944Z,99.90
2019-05-11T21:55:43.740Z,99.90
2019-05-11T21:58:12.532Z,99.90
2019-05-11T22:00:41.457Z,99.90
2019-05-11T22:03:10.549Z,99.90
2019-05-11T22:05:41.712Z,99.90
2019-05-11T22:08:10.469Z,99.90
2019-05-11T22:10:39.284Z,99.90
2019-05-11T22:13:08.599Z,99.90
2019-05-11T22:15:38.625Z,99.90
2019-05-11T22:18:08.053Z,99.90
2019-05-11T22:20:38.033Z,99.90
2019-05-11T22:23:08.512Z,99.90
2019-05-11T22:25:38.126Z,99.90
2019-05-11T22:28:08.387Z,99.90
2019-05-11T22:30:39.301Z,99.90
2019-05-11T22:33:08.772Z,99.90
2019-05-11T22:35:38.575Z,99.90
2019-05-11T22:38:08.448Z,99.90
2019-05-11T22:40:38.349Z,99.90
2019-05-11T22:43:09.287Z,99.90
2019-05-11T22:45:38.341Z,99.90
2019-05-11T22:48:08.141Z,99.90
2019-05-11T22:50:38.249Z,99.90
2019-05-11T22:53:08.712Z,99.90
2019-05-11T22:55:38.195Z,99.90
2019-05-11T22:58:09.434Z,99.90
2019-05-11T23:00:42.888Z,99.90
2019-05-11T23:03:11.878Z,99.90
2019-05-11T23:05:41.966Z,99.90
2019-05-11T23:08:12.083Z,99.90
2019-05-11T23:10:40.901Z,99.90
2019-05-11T23:13:11.665Z,99.90
2019-05-11T23:15:40.879Z,99.90
2019-05-11T23:18:09.598Z,99.90
2019-05-11T23:20:38.838Z,99.90
2019-05-11T23:23:08.694Z,99.90
2019-05-11T23:25:37.788Z,99.90
2019-05-11T23:28:06.499Z,99.90
2019-05-11T23:30:35.261Z,99.90
2019-05-11T23:33:03.957Z,99.90
2019-05-11T23:35:33.841Z,99.90
2019-05-11T23:38:02.577Z,99.90
2019-05-11T23:40:31.292Z,99.90
2019-05-11T23:43:00.280Z,99.90
2019-05-11T23:45:29.005Z,99.90
2019-05-11T23:47:58.875Z,99.90
2019-05-11T23:50:28.276Z,99.90
2019-05-11T23:53:05.909Z,99.90
2019-05-11T23:55:29.034Z,99.90
2019-05-11T23:57:58.046Z,99.90
